sensor_id;sensor_type;location;lat;lon;timestamp;pressure;altitude;pressure_sealevel;temperature;humidity
55171;BME280;41060;47.510;8.680;2022-11-06T00:00:04;97528.13;;;6.15;61.53
55171;BME280;41060;47.510;8.680;2022-11-06T00:02:31;97519.22;;;6.17;61.67
55171;BME280;41060;47.510;8.680;2022-11-06T00:04:58;97522.25;;;6.10;61.80
55171;BME280;41060;47.510;8.680;2022-11-06T00:07:47;97525.50;;;5.99;62.27
55171;BME280;41060;47.510;8.680;2022-11-06T00:10:12;97524.56;;;6.00;62.19
55171;BME280;41060;47.510;8.680;2022-11-06T00:12:40;97530.16;;;5.94;62.15
55171;BME280;41060;47.510;8.680;2022-11-06T00:15:08;97537.44;;;5.89;62.04
55171;BME280;41060;47.510;8.680;2022-11-06T00:17:35;97528.19;;;5.82;61.95
55171;BME280;41060;47.510;8.680;2022-11-06T00:20:03;97539.66;;;5.96;61.67
55171;BME280;41060;47.510;8.680;2022-11-06T00:22:31;97530.31;;;5.91;61.73
55171;BME280;41060;47.510;8.680;2022-11-06T00:24:59;97525.41;;;6.00;61.40
55171;BME280;41060;47.510;8.680;2022-11-06T00:27:26;97506.34;;;6.13;60.77
55171;BME280;41060;47.510;8.680;2022-11-06T00:29:53;97507.75;;;6.18;60.25
55171;BME280;41060;47.510;8.680;2022-11-06T00:32:20;97507.25;;;6.27;60.04
55171;BME280;41060;47.510;8.680;2022-11-06T00:34:47;97504.13;;;6.36;59.77
55171;BME280;41060;47.510;8.680;2022-11-06T00:37:14;97483.66;;;6.41;59.34
55171;BME280;41060;47.510;8.680;2022-11-06T00:39:41;97485.19;;;6.45;59.12
55171;BME280;41060;47.510;8.680;2022-11-06T00:42:09;97481.63;;;6.47;58.83
55171;BME280;41060;47.510;8.680;2022-11-06T00:44:36;97478.22;;;6.44;58.84
55171;BME280;41060;47.510;8.680;2022-11-06T00:47:03;97481.50;;;6.48;58.68
55171;BME280;41060;47.510;8.680;2022-11-06T00:49:30;97476.09;;;6.51;58.53
55171;BME280;41060;47.510;8.680;2022-11-06T00:51:57;97470.63;;;6.54;58.42
55171;BME280;41060;47.510;8.680;2022-11-06T00:54:25;97475.31;;;6.49;58.40
55171;BME280;41060;47.510;8.680;2022-11-06T00:56:52;97474.31;;;6.52;58.24
55171;BME280;41060;47.510;8.680;2022-11-06T00:59:21;97480.53;;;6.35;58.66
55171;BME280;41060;47.510;8.680;2022-11-06T01:01:47;97476.47;;;6.14;58.85
55171;BME280;41060;47.510;8.680;2022-11-06T01:04:16;97488.00;;;5.80;59.53
55171;BME280;41060;47.510;8.680;2022-11-06T01:06:47;97489.00;;;5.44;60.43
55171;BME280;41060;47.510;8.680;2022-11-06T01:09:16;97488.28;;;5.42;60.55
55171;BME280;41060;47.510;8.680;2022-11-06T01:11:45;97489.63;;;5.49;60.38
55171;BME280;41060;47.510;8.680;2022-11-06T01:14:14;97443.56;;;5.11;60.61
55171;BME280;41060;47.510;8.680;2022-11-06T01:16:44;97507.97;;;5.34;60.47
55171;BME280;41060;47.510;8.680;2022-11-06T01:19:13;97512.53;;;5.30;60.99
55171;BME280;41060;47.510;8.680;2022-11-06T01:21:42;97511.13;;;5.40;60.89
55171;BME280;41060;47.510;8.680;2022-11-06T01:24:11;97506.25;;;5.50;60.53
55171;BME280;41060;47.510;8.680;2022-11-06T01:26:38;97518.72;;;5.62;60.69
55171;BME280;41060;47.510;8.680;2022-11-06T01:29:07;97519.56;;;5.62;61.17
55171;BME280;41060;47.510;8.680;2022-11-06T01:31:36;97518.34;;;5.52;61.87
55171;BME280;41060;47.510;8.680;2022-11-06T01:34:05;97513.94;;;5.53;62.06
55171;BME280;41060;47.510;8.680;2022-11-06T01:36:32;97511.34;;;5.68;61.22
55171;BME280;41060;47.510;8.680;2022-11-06T01:39:00;97510.63;;;5.82;61.01
55171;BME280;41060;47.510;8.680;2022-11-06T01:41:36;97497.09;;;5.90;61.12
55171;BME280;41060;47.510;8.680;2022-11-06T01:44:58;97493.81;;;6.02;60.42
55171;BME280;41060;47.510;8.680;2022-11-06T01:46:53;97489.78;;;6.11;59.99
55171;BME280;41060;47.510;8.680;2022-11-06T01:49:22;97484.38;;;6.14;60.01
55171;BME280;41060;47.510;8.680;2022-11-06T01:51:51;97478.97;;;6.17;59.99
55171;BME280;41060;47.510;8.680;2022-11-06T01:54:20;97477.91;;;6.19;60.36
55171;BME280;41060;47.510;8.680;2022-11-06T01:56:49;97471.72;;;6.20;60.36
55171;BME280;41060;47.510;8.680;2022-11-06T01:59:18;97468.94;;;6.23;60.20
55171;BME280;41060;47.510;8.680;2022-11-06T02:01:46;97480.19;;;6.25;60.35
55171;BME280;41060;47.510;8.680;2022-11-06T02:04:17;97473.25;;;6.24;60.35
55171;BME280;41060;47.510;8.680;2022-11-06T02:06:48;97473.00;;;6.29;60.36
55171;BME280;41060;47.510;8.680;2022-11-06T02:09:16;97465.94;;;6.29;60.31
55171;BME280;41060;47.510;8.680;2022-11-06T02:11:45;97467.72;;;6.29;60.02
55171;BME280;41060;47.510;8.680;2022-11-06T02:14:19;97455.50;;;6.28;59.92
55171;BME280;41060;47.510;8.680;2022-11-06T02:16:52;97447.53;;;6.29;59.98
55171;BME280;41060;47.510;8.680;2022-11-06T02:19:34;97454.03;;;6.08;60.58
55171;BME280;41060;47.510;8.680;2022-11-06T02:25:12;97461.50;;;5.51;62.36
55171;BME280;41060;47.510;8.680;2022-11-06T02:27:44;97462.22;;;5.38;63.09
55171;BME280;41060;47.510;8.680;2022-11-06T02:30:14;97460.31;;;5.41;63.17
55171;BME280;41060;47.510;8.680;2022-11-06T02:32:44;97456.78;;;5.25;63.09
55171;BME280;41060;47.510;8.680;2022-11-06T02:35:19;97448.50;;;5.33;63.16
55171;BME280;41060;47.510;8.680;2022-11-06T02:37:54;97451.41;;;5.28;63.05
55171;BME280;41060;47.510;8.680;2022-11-06T02:40:29;97446.88;;;5.30;63.18
55171;BME280;41060;47.510;8.680;2022-11-06T02:43:04;97434.03;;;5.41;62.93
55171;BME280;41060;47.510;8.680;2022-11-06T02:45:33;97430.72;;;5.38;63.01
55171;BME280;41060;47.510;8.680;2022-11-06T02:48:02;97430.91;;;5.35;63.61
55171;BME280;41060;47.510;8.680;2022-11-06T02:50:34;97425.84;;;5.14;64.03
55171;BME280;41060;47.510;8.680;2022-11-06T02:53:06;97420.38;;;5.19;64.16
55171;BME280;41060;47.510;8.680;2022-11-06T02:55:37;97406.50;;;5.33;63.68
55171;BME280;41060;47.510;8.680;2022-11-06T02:58:10;97403.13;;;5.46;63.23
55171;BME280;41060;47.510;8.680;2022-11-06T03:00:41;97371.69;;;5.45;62.60
55171;BME280;41060;47.510;8.680;2022-11-06T03:03:15;97369.84;;;5.62;62.46
55171;BME280;41060;47.510;8.680;2022-11-06T03:05:47;97391.28;;;5.86;61.57
55171;BME280;41060;47.510;8.680;2022-11-06T03:08:24;97397.22;;;5.90;61.62
55171;BME280;41060;47.510;8.680;2022-11-06T03:10:59;97401.97;;;5.99;61.58
55171;BME280;41060;47.510;8.680;2022-11-06T03:13:38;97403.16;;;5.93;61.62
55171;BME280;41060;47.510;8.680;2022-11-06T03:16:17;97401.97;;;5.99;61.56
55171;BME280;41060;47.510;8.680;2022-11-06T03:18:50;97399.31;;;5.99;61.79
55171;BME280;41060;47.510;8.680;2022-11-06T03:21:23;97405.50;;;5.98;61.32
55171;BME280;41060;47.510;8.680;2022-11-06T03:23:54;97406.53;;;5.95;61.67
55171;BME280;41060;47.510;8.680;2022-11-06T03:26:26;97399.50;;;5.64;63.20
55171;BME280;41060;47.510;8.680;2022-11-06T03:29:00;97389.91;;;5.48;63.62
55171;BME280;41060;47.510;8.680;2022-11-06T03:31:37;97391.19;;;5.41;63.89
55171;BME280;41060;47.510;8.680;2022-11-06T03:34:06;97392.19;;;5.38;63.96
55171;BME280;41060;47.510;8.680;2022-11-06T03:36:36;97399.69;;;5.28;64.81
55171;BME280;41060;47.510;8.680;2022-11-06T03:39:09;97410.38;;;5.25;64.71
55171;BME280;41060;47.510;8.680;2022-11-06T03:41:41;97395.75;;;5.37;64.36
55171;BME280;41060;47.510;8.680;2022-11-06T03:44:17;97384.66;;;5.32;64.45
55171;BME280;41060;47.510;8.680;2022-11-06T03:46:50;97396.75;;;5.50;64.16
55171;BME280;41060;47.510;8.680;2022-11-06T03:49:19;97397.88;;;5.62;64.12
55171;BME280;41060;47.510;8.680;2022-11-06T03:51:51;97400.34;;;5.65;63.71
55171;BME280;41060;47.510;8.680;2022-11-06T03:54:22;97400.13;;;5.37;64.31
55171;BME280;41060;47.510;8.680;2022-11-06T03:56:54;97396.44;;;5.41;64.41
55171;BME280;41060;47.510;8.680;2022-11-06T03:59:26;97410.06;;;5.47;64.06
55171;BME280;41060;47.510;8.680;2022-11-06T04:01:56;97417.53;;;5.39;64.36
55171;BME280;41060;47.510;8.680;2022-11-06T04:04:26;97407.44;;;5.32;64.44
55171;BME280;41060;47.510;8.680;2022-11-06T04:06:58;97399.41;;;5.35;64.42
55171;BME280;41060;47.510;8.680;2022-11-06T04:09:28;97391.09;;;5.42;64.41
55171;BME280;41060;47.510;8.680;2022-11-06T04:12:18;97376.69;;;5.49;64.11
55171;BME280;41060;47.510;8.680;2022-11-06T04:15:08;97382.47;;;5.56;64.15
55171;BME280;41060;47.510;8.680;2022-11-06T04:17:36;97384.31;;;5.69;63.68
55171;BME280;41060;47.510;8.680;2022-11-06T04:20:10;97385.34;;;5.83;63.32
55171;BME280;41060;47.510;8.680;2022-11-06T04:23:03;97383.91;;;5.93;62.65
55171;BME280;41060;47.510;8.680;2022-11-06T04:25:43;97390.66;;;5.97;62.66
55171;BME280;41060;47.510;8.680;2022-11-06T04:28:36;97381.34;;;6.07;62.31
55171;BME280;41060;47.510;8.680;2022-11-06T04:31:11;97374.88;;;6.13;62.26
55171;BME280;41060;47.510;8.680;2022-11-06T04:33:46;97370.56;;;6.12;62.36
55171;BME280;41060;47.510;8.680;2022-11-06T04:36:21;97374.47;;;6.04;62.57
55171;BME280;41060;47.510;8.680;2022-11-06T04:39:00;97375.81;;;6.12;62.53
55171;BME280;41060;47.510;8.680;2022-11-06T04:41:33;97367.47;;;6.19;62.40
55171;BME280;41060;47.510;8.680;2022-11-06T04:44:07;97358.50;;;6.23;62.25
55171;BME280;41060;47.510;8.680;2022-11-06T04:46:41;97357.09;;;6.32;62.23
55171;BME280;41060;47.510;8.680;2022-11-06T04:49:10;97350.88;;;6.33;62.02
55171;BME280;41060;47.510;8.680;2022-11-06T04:51:39;97357.69;;;6.37;61.91
55171;BME280;41060;47.510;8.680;2022-11-06T04:54:09;97361.25;;;6.36;61.71
55171;BME280;41060;47.510;8.680;2022-11-06T04:56:36;97357.41;;;6.41;62.08
55171;BME280;41060;47.510;8.680;2022-11-06T04:59:04;97342.53;;;6.40;62.27
55171;BME280;41060;47.510;8.680;2022-11-06T05:01:32;97338.06;;;6.42;62.15
55171;BME280;41060;47.510;8.680;2022-11-06T05:04:00;97340.22;;;6.50;62.08
55171;BME280;41060;47.510;8.680;2022-11-06T05:06:27;97328.94;;;6.48;62.01
55171;BME280;41060;47.510;8.680;2022-11-06T05:08:54;97326.44;;;6.47;61.81
55171;BME280;41060;47.510;8.680;2022-11-06T05:11:22;97286.56;;;6.24;62.04
55171;BME280;41060;47.510;8.680;2022-11-06T05:13:49;97312.88;;;6.38;61.67
55171;BME280;41060;47.510;8.680;2022-11-06T05:16:16;97312.59;;;6.43;61.65
55171;BME280;41060;47.510;8.680;2022-11-06T05:18:43;97317.69;;;6.46;61.79
55171;BME280;41060;47.510;8.680;2022-11-06T05:21:11;97315.78;;;6.48;61.67
55171;BME280;41060;47.510;8.680;2022-11-06T05:23:55;97320.31;;;6.46;61.40
55171;BME280;41060;47.510;8.680;2022-11-06T05:26:22;97314.19;;;6.31;62.50
55171;BME280;41060;47.510;8.680;2022-11-06T05:28:49;97319.69;;;6.27;62.50
55171;BME280;41060;47.510;8.680;2022-11-06T05:31:16;97326.09;;;6.23;62.83
55171;BME280;41060;47.510;8.680;2022-11-06T05:33:43;97320.19;;;6.33;62.68
55171;BME280;41060;47.510;8.680;2022-11-06T05:36:11;97326.63;;;6.14;63.11
55171;BME280;41060;47.510;8.680;2022-11-06T05:38:38;97323.97;;;5.84;64.26
55171;BME280;41060;47.510;8.680;2022-11-06T05:41:05;97319.72;;;5.97;63.95
55171;BME280;41060;47.510;8.680;2022-11-06T05:43:32;97322.34;;;5.97;63.93
55171;BME280;41060;47.510;8.680;2022-11-06T05:45:59;97323.81;;;5.87;64.25
55171;BME280;41060;47.510;8.680;2022-11-06T05:48:27;97319.06;;;5.93;64.09
55171;BME280;41060;47.510;8.680;2022-11-06T05:50:59;97318.50;;;6.02;63.87
55171;BME280;41060;47.510;8.680;2022-11-06T05:53:30;97315.19;;;6.15;63.17
55171;BME280;41060;47.510;8.680;2022-11-06T05:55:57;97300.38;;;6.28;63.01
55171;BME280;41060;47.510;8.680;2022-11-06T05:58:24;97300.75;;;6.36;62.92
55171;BME280;41060;47.510;8.680;2022-11-06T06:00:51;97299.38;;;6.44;62.44
55171;BME280;41060;47.510;8.680;2022-11-06T06:03:21;97299.06;;;6.49;61.90
55171;BME280;41060;47.510;8.680;2022-11-06T06:05:48;97303.13;;;6.55;61.43
55171;BME280;41060;47.510;8.680;2022-11-06T06:08:16;97301.16;;;6.58;61.41
55171;BME280;41060;47.510;8.680;2022-11-06T06:10:45;97294.38;;;6.54;61.19
55171;BME280;41060;47.510;8.680;2022-11-06T06:13:13;97293.81;;;6.49;61.14
55171;BME280;41060;47.510;8.680;2022-11-06T06:15:43;97292.97;;;6.49;60.97
55171;BME280;41060;47.510;8.680;2022-11-06T06:18:11;97292.78;;;6.52;60.97
55171;BME280;41060;47.510;8.680;2022-11-06T06:20:38;97282.81;;;6.42;60.98
55171;BME280;41060;47.510;8.680;2022-11-06T06:23:05;97296.44;;;6.49;60.83
55171;BME280;41060;47.510;8.680;2022-11-06T06:25:32;97279.78;;;6.34;61.28
55171;BME280;41060;47.510;8.680;2022-11-06T06:28:00;97298.13;;;6.50;60.56
55171;BME280;41060;47.510;8.680;2022-11-06T06:30:28;97310.38;;;6.65;60.49
55171;BME280;41060;47.510;8.680;2022-11-06T06:32:54;97315.06;;;6.60;61.22
55171;BME280;41060;47.510;8.680;2022-11-06T06:35:21;97310.53;;;6.62;61.23
55171;BME280;41060;47.510;8.680;2022-11-06T06:37:52;97298.81;;;6.68;60.93
55171;BME280;41060;47.510;8.680;2022-11-06T06:40:19;97287.91;;;6.74;60.75
55171;BME280;41060;47.510;8.680;2022-11-06T06:42:46;97285.75;;;6.80;60.60
55171;BME280;41060;47.510;8.680;2022-11-06T06:45:15;97283.69;;;6.71;60.83
55171;BME280;41060;47.510;8.680;2022-11-06T06:47:44;97302.47;;;6.79;60.70
55171;BME280;41060;47.510;8.680;2022-11-06T06:50:10;97306.88;;;6.65;61.58
55171;BME280;41060;47.510;8.680;2022-11-06T06:52:37;97299.16;;;6.48;62.02
55171;BME280;41060;47.510;8.680;2022-11-06T06:55:05;97282.34;;;6.50;62.33
55171;BME280;41060;47.510;8.680;2022-11-06T06:57:32;97272.69;;;6.65;61.87
55171;BME280;41060;47.510;8.680;2022-11-06T06:59:59;97267.03;;;6.71;61.87
55171;BME280;41060;47.510;8.680;2022-11-06T07:02:27;97271.28;;;6.59;62.78
55171;BME280;41060;47.510;8.680;2022-11-06T07:04:54;97271.91;;;6.49;62.66
55171;BME280;41060;47.510;8.680;2022-11-06T07:07:21;97258.13;;;6.59;62.04
55171;BME280;41060;47.510;8.680;2022-11-06T07:09:48;97257.44;;;6.70;61.54
55171;BME280;41060;47.510;8.680;2022-11-06T07:12:16;97262.34;;;6.76;61.24
55171;BME280;41060;47.510;8.680;2022-11-06T07:14:43;97257.72;;;6.79;61.18
55171;BME280;41060;47.510;8.680;2022-11-06T07:17:10;97255.78;;;6.83;61.37
55171;BME280;41060;47.510;8.680;2022-11-06T07:19:38;97241.00;;;6.80;61.54
55171;BME280;41060;47.510;8.680;2022-11-06T07:22:05;97247.28;;;6.78;61.94
55171;BME280;41060;47.510;8.680;2022-11-06T07:24:33;97244.09;;;6.87;61.56
55171;BME280;41060;47.510;8.680;2022-11-06T07:27:00;97236.75;;;6.92;61.18
55171;BME280;41060;47.510;8.680;2022-11-06T07:29:28;97236.56;;;6.95;60.78
55171;BME280;41060;47.510;8.680;2022-11-06T07:31:54;97233.53;;;7.01;60.51
55171;BME280;41060;47.510;8.680;2022-11-06T07:34:21;97225.47;;;7.04;60.40
55171;BME280;41060;47.510;8.680;2022-11-06T07:36:50;97225.25;;;7.07;60.14
55171;BME280;41060;47.510;8.680;2022-11-06T07:39:19;97220.44;;;7.14;59.85
55171;BME280;41060;47.510;8.680;2022-11-06T07:41:45;97212.66;;;7.12;59.92
55171;BME280;41060;47.510;8.680;2022-11-06T07:44:15;97214.00;;;7.05;60.15
55171;BME280;41060;47.510;8.680;2022-11-06T07:46:45;97206.63;;;7.10;60.31
55171;BME280;41060;47.510;8.680;2022-11-06T07:49:13;97195.78;;;7.15;60.43
55171;BME280;41060;47.510;8.680;2022-11-06T07:51:41;97195.13;;;7.26;60.15
55171;BME280;41060;47.510;8.680;2022-11-06T07:54:11;97186.91;;;7.30;59.95
55171;BME280;41060;47.510;8.680;2022-11-06T07:56:40;97177.13;;;7.32;60.09
55171;BME280;41060;47.510;8.680;2022-11-06T07:59:07;97174.78;;;7.28;60.81
55171;BME280;41060;47.510;8.680;2022-11-06T08:01:36;97167.13;;;7.10;61.04
55171;BME280;41060;47.510;8.680;2022-11-06T08:04:03;97173.13;;;6.85;61.62
55171;BME280;41060;47.510;8.680;2022-11-06T08:06:30;97161.13;;;6.81;62.62
55171;BME280;41060;47.510;8.680;2022-11-06T08:08:56;97167.47;;;6.92;61.86
55171;BME280;41060;47.510;8.680;2022-11-06T08:11:25;97169.16;;;6.93;61.84
55171;BME280;41060;47.510;8.680;2022-11-06T08:13:52;97177.72;;;6.96;62.08
55171;BME280;41060;47.510;8.680;2022-11-06T08:16:19;97176.47;;;7.02;61.82
55171;BME280;41060;47.510;8.680;2022-11-06T08:18:46;97180.03;;;6.74;62.75
55171;BME280;41060;47.510;8.680;2022-11-06T08:21:13;97164.63;;;6.68;62.85
55171;BME280;41060;47.510;8.680;2022-11-06T08:23:40;97176.00;;;6.68;62.71
55171;BME280;41060;47.510;8.680;2022-11-06T08:26:06;97173.84;;;6.61;64.52
55171;BME280;41060;47.510;8.680;2022-11-06T08:28:35;97164.81;;;6.65;65.22
55171;BME280;41060;47.510;8.680;2022-11-06T08:31:03;97165.31;;;6.84;64.75
55171;BME280;41060;47.510;8.680;2022-11-06T08:33:30;97156.44;;;6.72;63.96
55171;BME280;41060;47.510;8.680;2022-11-06T08:36:00;97160.56;;;6.62;64.78
55171;BME280;41060;47.510;8.680;2022-11-06T08:38:27;97158.66;;;6.78;64.64
55171;BME280;41060;47.510;8.680;2022-11-06T08:40:54;97164.28;;;6.87;64.44
55171;BME280;41060;47.510;8.680;2022-11-06T08:43:22;97155.16;;;6.92;65.08
55171;BME280;41060;47.510;8.680;2022-11-06T08:45:53;97146.25;;;7.07;64.77
55171;BME280;41060;47.510;8.680;2022-11-06T08:48:19;97136.28;;;7.12;64.70
55171;BME280;41060;47.510;8.680;2022-11-06T08:50:47;97132.09;;;7.22;64.20
55171;BME280;41060;47.510;8.680;2022-11-06T08:53:13;97109.25;;;7.36;63.93
55171;BME280;41060;47.510;8.680;2022-11-06T08:55:40;97099.28;;;7.53;63.34
55171;BME280;41060;47.510;8.680;2022-11-06T08:58:07;97082.34;;;7.57;62.93
55171;BME280;41060;47.510;8.680;2022-11-06T09:00:35;97090.13;;;7.46;62.61
55171;BME280;41060;47.510;8.680;2022-11-06T09:03:04;97092.94;;;7.31;62.45
55171;BME280;41060;47.510;8.680;2022-11-06T09:05:32;97105.56;;;7.26;62.78
55171;BME280;41060;47.510;8.680;2022-11-06T09:07:59;97114.97;;;7.03;63.81
55171;BME280;41060;47.510;8.680;2022-11-06T09:10:27;97127.09;;;7.05;64.02
55171;BME280;41060;47.510;8.680;2022-11-06T09:12:56;97138.28;;;7.09;63.40
55171;BME280;41060;47.510;8.680;2022-11-06T09:15:23;97136.91;;;7.16;63.31
55171;BME280;41060;47.510;8.680;2022-11-06T09:17:50;97133.53;;;7.14;62.96
55171;BME280;41060;47.510;8.680;2022-11-06T09:20:20;97131.22;;;7.09;63.50
55171;BME280;41060;47.510;8.680;2022-11-06T09:22:47;97117.91;;;6.98;63.75
55171;BME280;41060;47.510;8.680;2022-11-06T09:25:14;97147.94;;;7.08;63.75
55171;BME280;41060;47.510;8.680;2022-11-06T09:27:42;97152.03;;;7.00;62.90
55171;BME280;41060;47.510;8.680;2022-11-06T09:30:11;97147.94;;;7.08;64.72
55171;BME280;41060;47.510;8.680;2022-11-06T09:32:38;97148.16;;;7.45;64.40
55171;BME280;41060;47.510;8.680;2022-11-06T09:35:10;97147.50;;;7.81;63.67
55171;BME280;41060;47.510;8.680;2022-11-06T09:37:39;97141.22;;;8.09;62.44
55171;BME280;41060;47.510;8.680;2022-11-06T09:40:07;97131.28;;;8.37;61.59
55171;BME280;41060;47.510;8.680;2022-11-06T09:42:45;97117.75;;;8.78;63.45
55171;BME280;41060;47.510;8.680;2022-11-06T09:45:18;97092.94;;;9.29;62.29
55171;BME280;41060;47.510;8.680;2022-11-06T09:47:51;97082.59;;;9.61;59.65
55171;BME280;41060;47.510;8.680;2022-11-06T09:50:27;97087.44;;;9.89;58.91
55171;BME280;41060;47.510;8.680;2022-11-06T09:52:58;97069.78;;;10.12;58.09
55171;BME280;41060;47.510;8.680;2022-11-06T09:55:33;97037.19;;;10.11;56.91
55171;BME280;41060;47.510;8.680;2022-11-06T09:58:10;97066.75;;;10.50;56.36
55171;BME280;41060;47.510;8.680;2022-11-06T10:00:38;97051.81;;;10.60;56.09
55171;BME280;41060;47.510;8.680;2022-11-06T10:03:13;97075.16;;;10.77;54.16
55171;BME280;41060;47.510;8.680;2022-11-06T10:05:43;97077.91;;;10.87;53.87
55171;BME280;41060;47.510;8.680;2022-11-06T10:08:15;97069.50;;;10.70;52.87
55171;BME280;41060;47.510;8.680;2022-11-06T10:10:49;97074.59;;;10.18;53.83
55171;BME280;41060;47.510;8.680;2022-11-06T10:13:34;97072.03;;;9.83;54.53
55171;BME280;41060;47.510;8.680;2022-11-06T10:16:09;97061.59;;;9.92;56.70
55171;BME280;41060;47.510;8.680;2022-11-06T10:18:49;97063.75;;;9.65;55.70
55171;BME280;41060;47.510;8.680;2022-11-06T10:21:22;97077.69;;;9.32;56.32
55171;BME280;41060;47.510;8.680;2022-11-06T10:23:55;97076.84;;;9.08;56.54
55171;BME280;41060;47.510;8.680;2022-11-06T10:26:30;97074.34;;;8.83;57.06
55171;BME280;41060;47.510;8.680;2022-11-06T10:29:31;97070.88;;;8.46;58.09
55171;BME280;41060;47.510;8.680;2022-11-06T10:32:16;97068.50;;;8.30;58.85
55171;BME280;41060;47.510;8.680;2022-11-06T10:34:53;97056.91;;;8.20;58.93
55171;BME280;41060;47.510;8.680;2022-11-06T10:37:28;97079.75;;;8.45;58.43
55171;BME280;41060;47.510;8.680;2022-11-06T10:39:59;97067.47;;;8.56;58.43
55171;BME280;41060;47.510;8.680;2022-11-06T10:42:30;97067.19;;;8.72;57.72
55171;BME280;41060;47.510;8.680;2022-11-06T10:45:07;97070.97;;;8.81;57.39
55171;BME280;41060;47.510;8.680;2022-11-06T10:47:39;97061.16;;;8.83;57.18
55171;BME280;41060;47.510;8.680;2022-11-06T10:50:11;97055.13;;;8.81;57.79
55171;BME280;41060;47.510;8.680;2022-11-06T10:52:54;97048.06;;;8.81;56.80
55171;BME280;41060;47.510;8.680;2022-11-06T10:58:32;97037.41;;;8.94;56.71
55171;BME280;41060;47.510;8.680;2022-11-06T11:01:03;97034.47;;;8.98;57.19
55171;BME280;41060;47.510;8.680;2022-11-06T11:03:33;97046.81;;;8.98;56.41
55171;BME280;41060;47.510;8.680;2022-11-06T11:06:02;97046.25;;;9.05;56.44
55171;BME280;41060;47.510;8.680;2022-11-06T11:08:38;97042.63;;;9.06;55.69
55171;BME280;41060;47.510;8.680;2022-11-06T11:11:23;97037.22;;;9.08;55.78
55171;BME280;41060;47.510;8.680;2022-11-06T11:14:12;97028.84;;;8.79;55.70
55171;BME280;41060;47.510;8.680;2022-11-06T11:16:41;97019.84;;;8.82;56.05
55171;BME280;41060;47.510;8.680;2022-11-06T11:19:15;97019.66;;;8.96;55.97
55171;BME280;41060;47.510;8.680;2022-11-06T11:21:53;97020.78;;;9.04;55.40
55171;BME280;41060;47.510;8.680;2022-11-06T11:24:20;97011.97;;;8.93;55.72
55171;BME280;41060;47.510;8.680;2022-11-06T11:26:48;97007.88;;;8.89;55.28
55171;BME280;41060;47.510;8.680;2022-11-06T11:29:22;96989.31;;;9.01;55.78
55171;BME280;41060;47.510;8.680;2022-11-06T11:31:54;96991.16;;;9.12;55.61
55171;BME280;41060;47.510;8.680;2022-11-06T11:34:23;96993.06;;;9.21;54.99
55171;BME280;41060;47.510;8.680;2022-11-06T11:36:55;96986.81;;;9.35;54.86
55171;BME280;41060;47.510;8.680;2022-11-06T11:39:27;96980.94;;;9.42;54.45
55171;BME280;41060;47.510;8.680;2022-11-06T11:45:19;96967.94;;;9.39;53.86
55171;BME280;41060;47.510;8.680;2022-11-06T11:47:50;96976.53;;;9.19;54.05
55171;BME280;41060;47.510;8.680;2022-11-06T11:50:26;96970.41;;;9.18;54.08
55171;BME280;41060;47.510;8.680;2022-11-06T11:52:56;96962.09;;;9.12;54.13
55171;BME280;41060;47.510;8.680;2022-11-06T11:55:26;96956.56;;;9.15;54.71
55171;BME280;41060;47.510;8.680;2022-11-06T11:57:55;96954.09;;;9.36;54.14
55171;BME280;41060;47.510;8.680;2022-11-06T12:00:27;96958.47;;;9.48;53.93
55171;BME280;41060;47.510;8.680;2022-11-06T12:02:57;96948.13;;;9.56;53.92
55171;BME280;41060;47.510;8.680;2022-11-06T12:05:31;96948.38;;;9.75;53.70
55171;BME280;41060;47.510;8.680;2022-11-06T12:07:59;96951.13;;;9.85;53.65
55171;BME280;41060;47.510;8.680;2022-11-06T12:10:29;96929.63;;;9.78;54.29
55171;BME280;41060;47.510;8.680;2022-11-06T12:12:59;96925.16;;;9.90;53.68
55171;BME280;41060;47.510;8.680;2022-11-06T12:15:33;96892.72;;;9.66;53.18
55171;BME280;41060;47.510;8.680;2022-11-06T12:18:08;96929.50;;;9.80;53.19
55171;BME280;41060;47.510;8.680;2022-11-06T12:20:41;96911.38;;;9.64;53.96
55171;BME280;41060;47.510;8.680;2022-11-06T12:23:15;96927.22;;;9.75;53.44
55171;BME280;41060;47.510;8.680;2022-11-06T12:25:47;96922.41;;;9.91;53.05
55171;BME280;41060;47.510;8.680;2022-11-06T12:28:18;96915.28;;;10.03;53.12
55171;BME280;41060;47.510;8.680;2022-11-06T12:30:54;96917.25;;;9.57;53.50
55171;BME280;41060;47.510;8.680;2022-11-06T12:33:23;96912.31;;;9.52;53.45
55171;BME280;41060;47.510;8.680;2022-11-06T12:35:57;96909.56;;;9.65;53.39
55171;BME280;41060;47.510;8.680;2022-11-06T12:38:30;96909.69;;;9.52;53.59
55171;BME280;41060;47.510;8.680;2022-11-06T12:41:00;96904.75;;;9.47;53.09
55171;BME280;41060;47.510;8.680;2022-11-06T12:43:33;96897.06;;;9.55;52.97
55171;BME280;41060;47.510;8.680;2022-11-06T12:46:39;96891.31;;;9.62;52.44
55171;BME280;41060;47.510;8.680;2022-11-06T12:49:41;96882.16;;;9.43;52.87
55171;BME280;41060;47.510;8.680;2022-11-06T12:52:26;96893.94;;;9.50;53.41
55171;BME280;41060;47.510;8.680;2022-11-06T12:55:09;96890.34;;;9.51;54.19
55171;BME280;41060;47.510;8.680;2022-11-06T12:57:48;96889.28;;;9.65;53.56
55171;BME280;41060;47.510;8.680;2022-11-06T13:00:19;96887.94;;;9.71;53.42
55171;BME280;41060;47.510;8.680;2022-11-06T13:05:46;96882.03;;;9.78;52.87
55171;BME280;41060;47.510;8.680;2022-11-06T13:08:27;96873.03;;;9.70;52.10
55171;BME280;41060;47.510;8.680;2022-11-06T13:11:05;96880.00;;;9.71;53.24
55171;BME280;41060;47.510;8.680;2022-11-06T13:13:46;96869.41;;;9.82;52.75
55171;BME280;41060;47.510;8.680;2022-11-06T13:16:24;96880.69;;;9.84;52.10
55171;BME280;41060;47.510;8.680;2022-11-06T13:19:00;96880.84;;;9.60;52.24
55171;BME280;41060;47.510;8.680;2022-11-06T13:21:35;96867.97;;;9.67;52.86
55171;BME280;41060;47.510;8.680;2022-11-06T13:24:10;96872.66;;;9.74;52.74
55171;BME280;41060;47.510;8.680;2022-11-06T13:26:40;96872.16;;;9.80;52.92
55171;BME280;41060;47.510;8.680;2022-11-06T13:29:12;96869.88;;;9.87;53.12
55171;BME280;41060;47.510;8.680;2022-11-06T13:31:43;96876.22;;;9.95;52.81
55171;BME280;41060;47.510;8.680;2022-11-06T13:34:20;96868.38;;;10.05;53.87
55171;BME280;41060;47.510;8.680;2022-11-06T13:36:48;96872.19;;;10.12;53.38
55171;BME280;41060;47.510;8.680;2022-11-06T13:39:21;96871.84;;;10.17;52.97
55171;BME280;41060;47.510;8.680;2022-11-06T13:41:50;96872.94;;;10.03;53.19